sensor_id;sensor_type;location;lat;lon;timestamp;P1;durP1;ratioP1;P2;durP2;ratioP2
32250;SDS011;41295;48.518;9.206;2022-10-16T00:01:05;3.53;;;1.30;;
32250;SDS011;41295;48.518;9.206;2022-10-16T00:03:08;6.63;;;1.17;;
32250;SDS011;41295;48.518;9.206;2022-10-16T00:05:11;2.13;;;1.15;;
32250;SDS011;41295;48.518;9.206;2022-10-16T00:07:14;4.45;;;1.27;;
32250;SDS011;41295;48.518;9.206;2022-10-16T00:09:17;3.35;;;1.23;;
32250;SDS011;41295;48.518;9.206;2022-10-16T00:11:21;4.88;;;1.67;;
32250;SDS011;41295;48.518;9.206;2022-10-16T00:13:25;5.53;;;1.60;;
32250;SDS011;41295;48.518;9.206;2022-10-16T00:15:28;5.85;;;1.40;;
32250;SDS011;41295;48.518;9.206;2022-10-16T00:17:31;5.15;;;1.55;;
32250;SDS011;41295;48.518;9.206;2022-10-16T00:19:34;7.60;;;1.98;;
32250;SDS011;41295;48.518;9.206;2022-10-16T00:21:36;5.35;;;1.38;;
32250;SDS011;41295;48.518;9.206;2022-10-16T00:23:39;7.97;;;1.33;;
32250;SDS011;41295;48.518;9.206;2022-10-16T00:25:42;4.18;;;1.20;;
32250;SDS011;41295;48.518;9.206;2022-10-16T00:27:46;3.72;;;1.10;;
32250;SDS011;41295;48.518;9.206;2022-10-16T00:29:49;4.30;;;1.23;;
32250;SDS011;41295;48.518;9.206;2022-10-16T00:31:52;1.50;;;1.10;;
32250;SDS011;41295;48.518;9.206;2022-10-16T00:33:54;3.90;;;1.30;;
32250;SDS011;41295;48.518;9.206;2022-10-16T00:35:58;6.65;;;1.52;;
32250;SDS011;41295;48.518;9.206;2022-10-16T00:38:00;3.13;;;1.10;;
32250;SDS011;41295;48.518;9.206;2022-10-16T00:40:03;4.72;;;1.25;;
32250;SDS011;41295;48.518;9.206;2022-10-16T00:42:09;3.85;;;1.52;;
32250;SDS011;41295;48.518;9.206;2022-10-16T00:46:46;3.88;;;1.55;;
32250;SDS011;41295;48.518;9.206;2022-10-16T00:48:50;3.38;;;1.70;;
32250;SDS011;41295;48.518;9.206;2022-10-16T00:50:57;5.47;;;1.75;;
32250;SDS011;41295;48.518;9.206;2022-10-16T00:53:00;6.05;;;1.60;;
32250;SDS011;41295;48.518;9.206;2022-10-16T00:55:05;2.05;;;1.52;;
32250;SDS011;41295;48.518;9.206;2022-10-16T00:57:08;5.55;;;1.63;;
32250;SDS011;41295;48.518;9.206;2022-10-16T00:59:13;3.25;;;1.40;;
32250;SDS011;41295;48.518;9.206;2022-10-16T01:01:19;9.95;;;1.75;;
32250;SDS011;41295;48.518;9.206;2022-10-16T01:03:24;3.85;;;1.30;;
32250;SDS011;41295;48.518;9.206;2022-10-16T01:05:30;5.55;;;1.92;;
32250;SDS011;41295;48.518;9.206;2022-10-16T01:07:41;6.05;;;1.33;;
32250;SDS011;41295;48.518;9.206;2022-10-16T01:09:57;3.50;;;1.38;;
32250;SDS011;41295;48.518;9.206;2022-10-16T01:12:10;4.40;;;2.10;;
32250;SDS011;41295;48.518;9.206;2022-10-16T01:14:19;3.20;;;1.92;;
32250;SDS011;41295;48.518;9.206;2022-10-16T01:16:31;2.83;;;2.00;;
32250;SDS011;41295;48.518;9.206;2022-10-16T01:18:42;6.20;;;2.88;;
32250;SDS011;41295;48.518;9.206;2022-10-16T01:20:47;3.92;;;1.95;;
32250;SDS011;41295;48.518;9.206;2022-10-16T01:22:58;5.22;;;3.15;;
32250;SDS011;41295;48.518;9.206;2022-10-16T01:25:09;7.00;;;1.88;;
32250;SDS011;41295;48.518;9.206;2022-10-16T01:27:20;5.93;;;1.95;;
32250;SDS011;41295;48.518;9.206;2022-10-16T01:29:29;1.60;;;1.30;;
32250;SDS011;41295;48.518;9.206;2022-10-16T01:31:37;6.57;;;1.30;;
32250;SDS011;41295;48.518;9.206;2022-10-16T01:33:43;3.65;;;1.88;;
32250;SDS011;41295;48.518;9.206;2022-10-16T01:35:51;5.72;;;1.95;;
32250;SDS011;41295;48.518;9.206;2022-10-16T01:37:57;5.72;;;1.70;;
32250;SDS011;41295;48.518;9.206;2022-10-16T01:40:05;5.32;;;1.80;;
32250;SDS011;41295;48.518;9.206;2022-10-16T01:42:12;2.50;;;1.70;;
32250;SDS011;41295;48.518;9.206;2022-10-16T01:44:21;6.20;;;2.28;;
32250;SDS011;41295;48.518;9.206;2022-10-16T01:46:27;5.95;;;1.88;;
32250;SDS011;41295;48.518;9.206;2022-10-16T01:48:32;5.40;;;2.20;;
32250;SDS011;41295;48.518;9.206;2022-10-16T01:50:38;6.63;;;3.17;;
32250;SDS011;41295;48.518;9.206;2022-10-16T01:52:45;3.30;;;1.85;;
32250;SDS011;41295;48.518;9.206;2022-10-16T01:54:52;8.73;;;2.90;;
32250;SDS011;41295;48.518;9.206;2022-10-16T01:56:57;5.82;;;2.03;;
32250;SDS011;41295;48.518;9.206;2022-10-16T01:59:01;2.60;;;1.65;;
32250;SDS011;41295;48.518;9.206;2022-10-16T02:01:09;8.77;;;2.08;;
32250;SDS011;41295;48.518;9.206;2022-10-16T02:03:14;8.82;;;2.03;;
32250;SDS011;41295;48.518;9.206;2022-10-16T02:05:21;5.00;;;1.70;;
32250;SDS011;41295;48.518;9.206;2022-10-16T02:07:27;2.85;;;1.48;;
32250;SDS011;41295;48.518;9.206;2022-10-16T02:09:30;7.75;;;1.45;;
32250;SDS011;41295;48.518;9.206;2022-10-16T02:11:35;9.02;;;1.52;;
32250;SDS011;41295;48.518;9.206;2022-10-16T02:13:38;9.48;;;1.58;;
32250;SDS011;41295;48.518;9.206;2022-10-16T02:15:46;1.58;;;1.30;;
32250;SDS011;41295;48.518;9.206;2022-10-16T02:17:50;4.57;;;1.77;;
32250;SDS011;41295;48.518;9.206;2022-10-16T02:19:53;6.43;;;1.80;;
32250;SDS011;41295;48.518;9.206;2022-10-16T02:25:24;5.18;;;1.75;;
32250;SDS011;41295;48.518;9.206;2022-10-16T02:27:32;4.30;;;1.67;;
32250;SDS011;41295;48.518;9.206;2022-10-16T02:29:41;4.97;;;1.98;;
32250;SDS011;41295;48.518;9.206;2022-10-16T02:31:57;7.22;;;1.70;;
32250;SDS011;41295;48.518;9.206;2022-10-16T02:34:04;3.80;;;2.10;;
32250;SDS011;41295;48.518;9.206;2022-10-16T02:36:08;4.63;;;2.35;;
32250;SDS011;41295;48.518;9.206;2022-10-16T02:38:12;9.55;;;2.28;;
32250;SDS011;41295;48.518;9.206;2022-10-16T02:40:16;3.78;;;2.40;;
32250;SDS011;41295;48.518;9.206;2022-10-16T02:42:29;5.95;;;2.28;;
32250;SDS011;41295;48.518;9.206;2022-10-16T02:44:34;3.63;;;1.80;;
32250;SDS011;41295;48.518;9.206;2022-10-16T02:46:37;2.75;;;1.75;;
32250;SDS011;41295;48.518;9.206;2022-10-16T02:48:40;11.45;;;1.98;;
32250;SDS011;41295;48.518;9.206;2022-10-16T02:50:44;4.78;;;1.70;;
32250;SDS011;41295;48.518;9.206;2022-10-16T02:52:46;10.85;;;2.42;;
32250;SDS011;41295;48.518;9.206;2022-10-16T02:54:49;5.00;;;1.75;;
32250;SDS011;41295;48.518;9.206;2022-10-16T02:56:51;5.40;;;2.08;;
32250;SDS011;41295;48.518;9.206;2022-10-16T02:58:54;12.25;;;1.90;;
32250;SDS011;41295;48.518;9.206;2022-10-16T03:00:57;4.20;;;1.90;;
32250;SDS011;41295;48.518;9.206;2022-10-16T03:02:59;6.25;;;1.77;;
32250;SDS011;41295;48.518;9.206;2022-10-16T03:05:02;9.40;;;1.90;;
32250;SDS011;41295;48.518;9.206;2022-10-16T03:07:06;6.82;;;1.90;;
32250;SDS011;41295;48.518;9.206;2022-10-16T03:09:09;5.43;;;2.25;;
32250;SDS011;41295;48.518;9.206;2022-10-16T03:11:12;4.45;;;2.00;;
32250;SDS011;41295;48.518;9.206;2022-10-16T03:13:14;5.97;;;2.15;;
32250;SDS011;41295;48.518;9.206;2022-10-16T03:15:17;4.97;;;2.20;;
32250;SDS011;41295;48.518;9.206;2022-10-16T03:17:20;6.15;;;2.05;;
32250;SDS011;41295;48.518;9.206;2022-10-16T03:19:22;4.82;;;1.75;;
32250;SDS011;41295;48.518;9.206;2022-10-16T03:21:25;8.57;;;1.75;;
32250;SDS011;41295;48.518;9.206;2022-10-16T03:23:29;5.03;;;2.00;;
32250;SDS011;41295;48.518;9.206;2022-10-16T03:25:32;5.32;;;2.17;;
32250;SDS011;41295;48.518;9.206;2022-10-16T03:27:34;6.15;;;2.42;;
32250;SDS011;41295;48.518;9.206;2022-10-16T03:29:37;8.85;;;2.70;;
32250;SDS011;41295;48.518;9.206;2022-10-16T03:31:40;6.10;;;2.10;;
32250;SDS011;41295;48.518;9.206;2022-10-16T03:33:42;17.92;;;2.05;;
32250;SDS011;41295;48.518;9.206;2022-10-16T03:35:50;9.82;;;1.90;;
32250;SDS011;41295;48.518;9.206;2022-10-16T03:37:54;7.07;;;2.13;;
32250;SDS011;41295;48.518;9.206;2022-10-16T03:39:59;5.78;;;2.17;;
32250;SDS011;41295;48.518;9.206;2022-10-16T03:42:01;5.25;;;1.90;;
32250;SDS011;41295;48.518;9.206;2022-10-16T03:44:04;5.43;;;2.20;;
32250;SDS011;41295;48.518;9.206;2022-10-16T03:46:07;9.45;;;2.53;;
32250;SDS011;41295;48.518;9.206;2022-10-16T03:48:10;7.10;;;2.03;;
32250;SDS011;41295;48.518;9.206;2022-10-16T03:50:13;5.18;;;2.10;;
32250;SDS011;41295;48.518;9.206;2022-10-16T03:52:16;6.28;;;2.70;;
32250;SDS011;41295;48.518;9.206;2022-10-16T03:54:19;6.88;;;2.60;;
32250;SDS011;41295;48.518;9.206;2022-10-16T03:56:24;10.35;;;2.50;;
32250;SDS011;41295;48.518;9.206;2022-10-16T03:58:27;6.32;;;2.22;;
32250;SDS011;41295;48.518;9.206;2022-10-16T04:00:29;6.45;;;2.10;;
32250;SDS011;41295;48.518;9.206;2022-10-16T04:02:32;3.28;;;2.17;;
32250;SDS011;41295;48.518;9.206;2022-10-16T04:04:35;4.10;;;1.77;;
32250;SDS011;41295;48.518;9.206;2022-10-16T04:06:37;10.23;;;3.22;;
32250;SDS011;41295;48.518;9.206;2022-10-16T04:08:41;5.32;;;2.10;;
32250;SDS011;41295;48.518;9.206;2022-10-16T04:10:44;6.85;;;2.25;;
32250;SDS011;41295;48.518;9.206;2022-10-16T04:12:49;4.38;;;2.00;;
32250;SDS011;41295;48.518;9.206;2022-10-16T04:14:51;3.95;;;2.13;;
32250;SDS011;41295;48.518;9.206;2022-10-16T04:16:54;9.27;;;2.67;;
32250;SDS011;41295;48.518;9.206;2022-10-16T04:18:57;7.60;;;2.33;;
32250;SDS011;41295;48.518;9.206;2022-10-16T04:21:01;6.70;;;2.42;;
32250;SDS011;41295;48.518;9.206;2022-10-16T04:23:05;3.53;;;2.42;;
32250;SDS011;41295;48.518;9.206;2022-10-16T04:25:08;3.97;;;2.17;;
32250;SDS011;41295;48.518;9.206;2022-10-16T04:27:11;7.18;;;2.80;;
32250;SDS011;41295;48.518;9.206;2022-10-16T04:29:15;6.07;;;2.20;;
32250;SDS011;41295;48.518;9.206;2022-10-16T04:31:17;4.13;;;1.90;;
32250;SDS011;41295;48.518;9.206;2022-10-16T04:33:20;6.30;;;1.95;;
32250;SDS011;41295;48.518;9.206;2022-10-16T04:35:23;6.97;;;2.35;;
32250;SDS011;41295;48.518;9.206;2022-10-16T04:37:25;4.70;;;2.50;;
32250;SDS011;41295;48.518;9.206;2022-10-16T04:39:29;8.27;;;2.50;;
32250;SDS011;41295;48.518;9.206;2022-10-16T04:41:32;5.85;;;2.00;;
32250;SDS011;41295;48.518;9.206;2022-10-16T04:43:34;5.93;;;1.92;;
32250;SDS011;41295;48.518;9.206;2022-10-16T04:45:38;7.53;;;2.05;;
32250;SDS011;41295;48.518;9.206;2022-10-16T04:47:41;10.73;;;2.20;;
32250;SDS011;41295;48.518;9.206;2022-10-16T04:49:43;9.68;;;2.50;;
32250;SDS011;41295;48.518;9.206;2022-10-16T04:51:46;6.47;;;2.40;;
32250;SDS011;41295;48.518;9.206;2022-10-16T04:53:48;4.60;;;2.10;;
32250;SDS011;41295;48.518;9.206;2022-10-16T04:55:51;9.70;;;2.05;;
32250;SDS011;41295;48.518;9.206;2022-10-16T04:57:54;9.73;;;2.10;;
32250;SDS011;41295;48.518;9.206;2022-10-16T04:59:56;5.60;;;2.00;;
32250;SDS011;41295;48.518;9.206;2022-10-16T05:02:00;4.85;;;2.05;;
32250;SDS011;41295;48.518;9.206;2022-10-16T05:04:03;4.85;;;1.88;;
32250;SDS011;41295;48.518;9.206;2022-10-16T05:06:05;4.38;;;2.00;;
32250;SDS011;41295;48.518;9.206;2022-10-16T05:08:08;3.22;;;2.20;;
32250;SDS011;41295;48.518;9.206;2022-10-16T05:10:11;4.72;;;2.10;;
32250;SDS011;41295;48.518;9.206;2022-10-16T05:12:14;7.22;;;2.33;;
32250;SDS011;41295;48.518;9.206;2022-10-16T05:14:16;8.15;;;2.38;;
32250;SDS011;41295;48.518;9.206;2022-10-16T05:16:19;9.82;;;1.92;;
32250;SDS011;41295;48.518;9.206;2022-10-16T05:18:23;8.38;;;1.88;;
32250;SDS011;41295;48.518;9.206;2022-10-16T05:20:26;4.90;;;2.08;;
32250;SDS011;41295;48.518;9.206;2022-10-16T05:22:28;5.60;;;1.88;;
32250;SDS011;41295;48.518;9.206;2022-10-16T05:24:31;3.00;;;1.70;;
32250;SDS011;41295;48.518;9.206;2022-10-16T05:26:34;6.38;;;2.05;;
32250;SDS011;41295;48.518;9.206;2022-10-16T05:28:36;4.55;;;1.85;;
32250;SDS011;41295;48.518;9.206;2022-10-16T05:30:39;3.40;;;1.80;;
32250;SDS011;41295;48.518;9.206;2022-10-16T05:32:45;6.55;;;1.90;;
32250;SDS011;41295;48.518;9.206;2022-10-16T05:34:50;5.45;;;2.17;;
32250;SDS011;41295;48.518;9.206;2022-10-16T05:36:53;3.03;;;1.90;;
32250;SDS011;41295;48.518;9.206;2022-10-16T05:38:55;3.10;;;2.08;;
32250;SDS011;41295;48.518;9.206;2022-10-16T05:40:58;4.75;;;2.08;;
32250;SDS011;41295;48.518;9.206;2022-10-16T05:43:00;5.00;;;1.90;;
32250;SDS011;41295;48.518;9.206;2022-10-16T05:45:03;7.68;;;2.85;;
32250;SDS011;41295;48.518;9.206;2022-10-16T05:47:07;4.43;;;2.08;;
32250;SDS011;41295;48.518;9.206;2022-10-16T05:49:09;5.93;;;1.70;;
32250;SDS011;41295;48.518;9.206;2022-10-16T05:51:14;4.90;;;2.15;;
32250;SDS011;41295;48.518;9.206;2022-10-16T05:53:16;5.18;;;2.28;;
32250;SDS011;41295;48.518;9.206;2022-10-16T05:55:26;4.97;;;2.15;;
32250;SDS011;41295;48.518;9.206;2022-10-16T05:57:29;4.60;;;2.00;;
32250;SDS011;41295;48.518;9.206;2022-10-16T05:59:32;2.50;;;1.95;;
32250;SDS011;41295;48.518;9.206;2022-10-16T06:01:34;6.18;;;2.10;;
32250;SDS011;41295;48.518;9.206;2022-10-16T06:03:37;9.48;;;1.80;;
32250;SDS011;41295;48.518;9.206;2022-10-16T06:05:40;13.68;;;2.33;;
32250;SDS011;41295;48.518;9.206;2022-10-16T06:07:45;3.78;;;2.00;;
32250;SDS011;41295;48.518;9.206;2022-10-16T06:09:48;6.05;;;2.00;;
32250;SDS011;41295;48.518;9.206;2022-10-16T06:11:51;8.70;;;2.10;;
32250;SDS011;41295;48.518;9.206;2022-10-16T06:13:54;5.25;;;2.20;;
32250;SDS011;41295;48.518;9.206;2022-10-16T06:15:58;2.88;;;1.92;;
32250;SDS011;41295;48.518;9.206;2022-10-16T06:18:01;5.50;;;2.65;;
32250;SDS011;41295;48.518;9.206;2022-10-16T06:20:08;5.65;;;1.80;;
32250;SDS011;41295;48.518;9.206;2022-10-16T06:22:11;2.63;;;2.00;;
32250;SDS011;41295;48.518;9.206;2022-10-16T06:24:15;7.93;;;2.08;;
32250;SDS011;41295;48.518;9.206;2022-10-16T06:26:18;4.68;;;2.25;;
32250;SDS011;41295;48.518;9.206;2022-10-16T06:28:22;4.05;;;1.95;;
32250;SDS011;41295;48.518;9.206;2022-10-16T06:30:24;8.48;;;2.28;;
32250;SDS011;41295;48.518;9.206;2022-10-16T06:32:29;3.92;;;1.88;;
32250;SDS011;41295;48.518;9.206;2022-10-16T06:34:32;7.15;;;1.95;;
32250;SDS011;41295;48.518;9.206;2022-10-16T06:36:35;4.85;;;2.88;;
32250;SDS011;41295;48.518;9.206;2022-10-16T06:38:38;9.43;;;3.40;;
32250;SDS011;41295;48.518;9.206;2022-10-16T06:40:42;9.20;;;4.38;;
32250;SDS011;41295;48.518;9.206;2022-10-16T06:42:45;12.88;;;5.28;;
32250;SDS011;41295;48.518;9.206;2022-10-16T06:44:47;14.13;;;5.03;;
32250;SDS011;41295;48.518;9.206;2022-10-16T06:46:50;13.88;;;4.80;;
32250;SDS011;41295;48.518;9.206;2022-10-16T06:48:53;9.75;;;5.00;;
32250;SDS011;41295;48.518;9.206;2022-10-16T06:50:56;13.98;;;5.30;;
32250;SDS011;41295;48.518;9.206;2022-10-16T06:53:00;15.00;;;6.32;;
32250;SDS011;41295;48.518;9.206;2022-10-16T06:55:03;12.05;;;4.85;;
32250;SDS011;41295;48.518;9.206;2022-10-16T06:57:09;10.68;;;5.47;;
32250;SDS011;41295;48.518;9.206;2022-10-16T06:59:12;17.50;;;7.85;;
32250;SDS011;41295;48.518;9.206;2022-10-16T07:01:15;16.63;;;7.90;;
32250;SDS011;41295;48.518;9.206;2022-10-16T07:03:19;16.80;;;7.63;;
32250;SDS011;41295;48.518;9.206;2022-10-16T07:05:22;9.88;;;6.07;;
32250;SDS011;41295;48.518;9.206;2022-10-16T07:07:24;8.32;;;4.05;;
32250;SDS011;41295;48.518;9.206;2022-10-16T07:09:27;9.82;;;3.55;;
32250;SDS011;41295;48.518;9.206;2022-10-16T07:11:35;8.68;;;3.88;;
32250;SDS011;41295;48.518;9.206;2022-10-16T07:13:40;8.00;;;3.17;;
32250;SDS011;41295;48.518;9.206;2022-10-16T07:15:44;6.93;;;3.10;;
32250;SDS011;41295;48.518;9.206;2022-10-16T07:17:47;6.57;;;3.13;;
32250;SDS011;41295;48.518;9.206;2022-10-16T07:19:49;8.15;;;3.22;;
32250;SDS011;41295;48.518;9.206;2022-10-16T07:21:54;12.05;;;3.22;;
32250;SDS011;41295;48.518;9.206;2022-10-16T07:23:58;6.90;;;2.40;;
32250;SDS011;41295;48.518;9.206;2022-10-16T07:26:02;6.35;;;2.58;;
32250;SDS011;41295;48.518;9.206;2022-10-16T07:28:06;6.68;;;2.30;;
32250;SDS011;41295;48.518;9.206;2022-10-16T07:30:10;4.95;;;2.17;;
32250;SDS011;41295;48.518;9.206;2022-10-16T07:32:13;5.40;;;2.25;;
32250;SDS011;41295;48.518;9.206;2022-10-16T07:34:16;6.00;;;2.55;;
32250;SDS011;41295;48.518;9.206;2022-10-16T07:36:20;5.68;;;1.95;;
32250;SDS011;41295;48.518;9.206;2022-10-16T07:38:23;5.03;;;1.92;;
32250;SDS011;41295;48.518;9.206;2022-10-16T07:40:26;7.63;;;1.88;;
32250;SDS011;41295;48.518;9.206;2022-10-16T07:42:29;14.02;;;2.42;;
32250;SDS011;41295;48.518;9.206;2022-10-16T07:44:31;3.67;;;1.92;;
32250;SDS011;41295;48.518;9.206;2022-10-16T07:46:35;3.33;;;1.85;;
32250;SDS011;41295;48.518;9.206;2022-10-16T07:48:38;4.53;;;2.38;;
32250;SDS011;41295;48.518;9.206;2022-10-16T07:50:41;6.90;;;1.95;;
32250;SDS011;41295;48.518;9.206;2022-10-16T07:52:43;4.88;;;2.13;;
32250;SDS011;41295;48.518;9.206;2022-10-16T07:54:46;5.20;;;2.40;;
32250;SDS011;41295;48.518;9.206;2022-10-16T07:56:49;6.32;;;2.22;;
32250;SDS011;41295;48.518;9.206;2022-10-16T07:58:51;6.47;;;2.45;;
32250;SDS011;41295;48.518;9.206;2022-10-16T08:00:54;6.13;;;2.70;;
32250;SDS011;41295;48.518;9.206;2022-10-16T08:02:59;6.50;;;2.58;;
32250;SDS011;41295;48.518;9.206;2022-10-16T08:05:02;4.55;;;2.90;;
32250;SDS011;41295;48.518;9.206;2022-10-16T08:07:06;4.82;;;2.40;;
32250;SDS011;41295;48.518;9.206;2022-10-16T08:09:09;3.70;;;2.40;;
32250;SDS011;41295;48.518;9.206;2022-10-16T08:11:11;6.15;;;2.10;;
32250;SDS011;41295;48.518;9.206;2022-10-16T08:13:15;6.50;;;2.30;;
32250;SDS011;41295;48.518;9.206;2022-10-16T08:15:17;6.13;;;2.55;;
32250;SDS011;41295;48.518;9.206;2022-10-16T08:17:21;5.50;;;2.72;;
32250;SDS011;41295;48.518;9.206;2022-10-16T08:19:25;7.40;;;2.75;;
32250;SDS011;41295;48.518;9.206;2022-10-16T08:21:28;8.00;;;2.40;;
32250;SDS011;41295;48.518;9.206;2022-10-16T08:23:30;5.35;;;1.85;;
32250;SDS011;41295;48.518;9.206;2022-10-16T08:25:34;6.18;;;2.17;;
32250;SDS011;41295;48.518;9.206;2022-10-16T08:27:37;4.93;;;2.53;;
32250;SDS011;41295;48.518;9.206;2022-10-16T08:29:40;4.43;;;2.17;;
32250;SDS011;41295;48.518;9.206;2022-10-16T08:31:43;5.63;;;2.35;;
32250;SDS011;41295;48.518;9.206;2022-10-16T08:33:45;13.70;;;2.78;;
32250;SDS011;41295;48.518;9.206;2022-10-16T08:35:53;5.68;;;2.83;;
32250;SDS011;41295;48.518;9.206;2022-10-16T08:37:55;6.80;;;2.78;;
32250;SDS011;41295;48.518;9.206;2022-10-16T08:39:58;12.52;;;3.20;;
32250;SDS011;41295;48.518;9.206;2022-10-16T08:42:15;10.88;;;2.95;;
32250;SDS011;41295;48.518;9.206;2022-10-16T08:44:33;5.53;;;2.55;;
32250;SDS011;41295;48.518;9.206;2022-10-16T08:46:47;4.25;;;2.22;;
32250;SDS011;41295;48.518;9.206;2022-10-16T08:48:55;6.75;;;1.95;;
32250;SDS011;41295;48.518;9.206;2022-10-16T08:51:02;3.53;;;1.88;;
32250;SDS011;41295;48.518;9.206;2022-10-16T08:53:07;4.25;;;1.92;;
32250;SDS011;41295;48.518;9.206;2022-10-16T08:55:23;4.85;;;2.00;;
32250;SDS011;41295;48.518;9.206;2022-10-16T08:57:34;4.85;;;2.13;;
32250;SDS011;41295;48.518;9.206;2022-10-16T08:59:37;5.30;;;1.67;;
32250;SDS011;41295;48.518;9.206;2022-10-16T09:01:40;5.97;;;1.90;;
32250;SDS011;41295;48.518;9.206;2022-10-16T09:06:17;6.20;;;2.03;;
32250;SDS011;41295;48.518;9.206;2022-10-16T09:08:29;4.60;;;2.35;;
32250;SDS011;41295;48.518;9.206;2022-10-16T09:10:44;4.18;;;1.98;;
32250;SDS011;41295;48.518;9.206;2022-10-16T09:12:58;3.08;;;1.80;;
32250;SDS011;41295;48.518;9.206;2022-10-16T09:15:13;4.35;;;1.83;;
32250;SDS011;41295;48.518;9.206;2022-10-16T09:19:50;5.50;;;1.35;;
32250;SDS011;41295;48.518;9.206;2022-10-16T09:21:57;5.50;;;1.50;;
32250;SDS011;41295;48.518;9.206;2022-10-16T09:24:07;5.25;;;1.67;;
32250;SDS011;41295;48.518;9.206;2022-10-16T09:26:14;7.88;;;2.17;;
32250;SDS011;41295;48.518;9.206;2022-10-16T09:28:19;6.60;;;1.83;;
32250;SDS011;41295;48.518;9.206;2022-10-16T09:30:22;5.55;;;2.28;;
32250;SDS011;41295;48.518;9.206;2022-10-16T09:32:28;6.30;;;2.08;;
32250;SDS011;41295;48.518;9.206;2022-10-16T09:34:32;6.97;;;2.80;;
32250;SDS011;41295;48.518;9.206;2022-10-16T09:36:39;7.78;;;2.22;;
32250;SDS011;41295;48.518;9.206;2022-10-16T09:38:45;4.75;;;2.35;;
32250;SDS011;41295;48.518;9.206;2022-10-16T09:40:48;7.03;;;2.70;;
32250;SDS011;41295;48.518;9.206;2022-10-16T09:43:05;11.63;;;2.55;;
32250;SDS011;41295;48.518;9.206;2022-10-16T09:45:20;6.80;;;2.17;;
32250;SDS011;41295;48.518;9.206;2022-10-16T09:47:25;4.15;;;2.35;;
32250;SDS011;41295;48.518;9.206;2022-10-16T09:49:30;4.15;;;2.47;;
32250;SDS011;41295;48.518;9.206;2022-10-16T09:51:33;5.95;;;3.20;;
32250;SDS011;41295;48.518;9.206;2022-10-16T09:53:38;9.32;;;2.30;;
32250;SDS011;41295;48.518;9.206;2022-10-16T09:55:51;7.18;;;2.60;;
32250;SDS011;41295;48.518;9.206;2022-10-16T09:57:55;7.70;;;2.80;;
32250;SDS011;41295;48.518;9.206;2022-10-16T09:59:58;6.60;;;2.92;;
32250;SDS011;41295;48.518;9.206;2022-10-16T10:02:01;5.38;;;2.65;;
32250;SDS011;41295;48.518;9.206;2022-10-16T10:04:12;6.97;;;2.45;;
32250;SDS011;41295;48.518;9.206;2022-10-16T10:06:20;6.15;;;3.25;;
32250;SDS011;41295;48.518;9.206;2022-10-16T10:08:25;4.85;;;2.60;;
32250;SDS011;41295;48.518;9.206;2022-10-16T10:10:28;7.95;;;2.70;;
32250;SDS011;41295;48.518;9.206;2022-10-16T10:12:33;5.22;;;2.55;;
32250;SDS011;41295;48.518;9.206;2022-10-16T10:14:38;5.53;;;2.80;;
32250;SDS011;41295;48.518;9.206;2022-10-16T10:16:44;3.92;;;2.63;;
32250;SDS011;41295;48.518;9.206;2022-10-16T10:18:46;4.47;;;2.25;;
32250;SDS011;41295;48.518;9.206;2022-10-16T10:21:00;6.68;;;2.85;;
32250;SDS011;41295;48.518;9.206;2022-10-16T10:23:15;3.88;;;2.97;;
32250;SDS011;41295;48.518;9.206;2022-10-16T10:25:29;6.43;;;2.95;;
32250;SDS011;41295;48.518;9.206;2022-10-16T10:28:09;5.65;;;3.08;;
32250;SDS011;41295;48.518;9.206;2022-10-16T10:30:21;4.25;;;2.00;;
32250;SDS011;41295;48.518;9.206;2022-10-16T10:32:28;4.40;;;2.20;;
32250;SDS011;41295;48.518;9.206;2022-10-16T10:34:52;8.63;;;2.72;;
32250;SDS011;41295;48.518;9.206;2022-10-16T10:37:09;4.50;;;2.25;;
32250;SDS011;41295;48.518;9.206;2022-10-16T10:39:26;7.75;;;2.30;;
32250;SDS011;41295;48.518;9.206;2022-10-16T10:44:20;3.67;;;1.70;;
32250;SDS011;41295;48.518;9.206;2022-10-16T10:46:34;5.32;;;2.00;;
32250;SDS011;41295;48.518;9.206;2022-10-16T10:48:48;2.67;;;1.50;;
32250;SDS011;41295;48.518;9.206;2022-10-16T10:51:00;4.45;;;1.70;;
32250;SDS011;41295;48.518;9.206;2022-10-16T10:53:15;3.15;;;2.08;;
32250;SDS011;41295;48.518;9.206;2022-10-16T10:55:25;5.15;;;1.60;;
32250;SDS011;41295;48.518;9.206;2022-10-16T10:59:49;4.72;;;1.52;;
32250;SDS011;41295;48.518;9.206;2022-10-16T11:02:13;1.83;;;1.23;;
32250;SDS011;41295;48.518;9.206;2022-10-16T11:04:32;3.97;;;1.70;;
32250;SDS011;41295;48.518;9.206;2022-10-16T11:06:43;2.60;;;1.25;;
32250;SDS011;41295;48.518;9.206;2022-10-16T11:08:50;2.80;;;1.42;;
32250;SDS011;41295;48.518;9.206;2022-10-16T11:13:08;3.30;;;1.55;;
32250;SDS011;41295;48.518;9.206;2022-10-16T11:15:20;3.05;;;1.35;;
32250;SDS011;41295;48.518;9.206;2022-10-16T11:17:28;7.90;;;1.52;;
32250;SDS011;41295;48.518;9.206;2022-10-16T11:19:35;3.88;;;1.63;;
32250;SDS011;41295;48.518;9.206;2022-10-16T11:21:44;7.35;;;1.85;;
32250;SDS011;41295;48.518;9.206;2022-10-16T11:23:53;4.40;;;1.70;;
32250;SDS011;41295;48.518;9.206;2022-10-16T11:25:59;4.82;;;1.40;;
32250;SDS011;41295;48.518;9.206;2022-10-16T11:28:07;5.20;;;1.38;;
32250;SDS011;41295;48.518;9.206;2022-10-16T11:30:16;2.72;;;1.13;;
32250;SDS011;41295;48.518;9.206;2022-10-16T11:32:23;6.78;;;1.20;;
32250;SDS011;41295;48.518;9.206;2022-10-16T11:34:32;1.50;;;1.30;;
32250;SDS011;41295;48.518;9.206;2022-10-16T11:36:40;4.18;;;1.48;;
32250;SDS011;41295;48.518;9.206;2022-10-16T11:38:48;3.03;;;1.50;;
32250;SDS011;41295;48.518;9.206;2022-10-16T11:40:58;3.42;;;1.52;;
32250;SDS011;41295;48.518;9.206;2022-10-16T11:43:06;2.35;;;1.60;;
32250;SDS011;41295;48.518;9.206;2022-10-16T11:47:33;5.00;;;1.50;;
32250;SDS011;41295;48.518;9.206;2022-10-16T11:49:59;3.65;;;1.20;;
32250;SDS011;41295;48.518;9.206;2022-10-16T11:52:06;2.65;;;1.30;;
32250;SDS011;41295;48.518;9.206;2022-10-16T11:54:16;5.90;;;1.30;;
32250;SDS011;41295;48.518;9.206;2022-10-16T11:56:24;3.65;;;1.35;;
32250;SDS011;41295;48.518;9.206;2022-10-16T11:58:28;4.13;;;1.85;;
32250;SDS011;41295;48.518;9.206;2022-10-16T12:00:37;3.08;;;1.40;;
32250;SDS011;41295;48.518;9.206;2022-10-16T12:02:50;2.67;;;1.23;;
32250;SDS011;41295;48.518;9.206;2022-10-16T12:05:01;4.97;;;1.60;;
32250;SDS011;41295;48.518;9.206;2022-10-16T12:07:14;3.97;;;1.80;;
32250;SDS011;41295;48.518;9.206;2022-10-16T12:09:22;12.30;;;1.58;;
32250;SDS011;41295;48.518;9.206;2022-10-16T12:11:33;5.80;;;1.20;;
32250;SDS011;41295;48.518;9.206;2022-10-16T12:13:38;3.47;;;1.60;;
32250;SDS011;41295;48.518;9.206;2022-10-16T12:15:45;2.78;;;1.83;;
32250;SDS011;41295;48.518;9.206;2022-10-16T12:18:01;3.83;;;1.48;;
32250;SDS011;41295;48.518;9.206;2022-10-16T12:20:18;6.43;;;1.50;;
32250;SDS011;41295;48.518;9.206;2022-10-16T12:22:24;2.67;;;1.58;;
32250;SDS011;41295;48.518;9.206;2022-10-16T12:24:32;5.03;;;1.63;;
32250;SDS011;41295;48.518;9.206;2022-10-16T12:26:38;1.65;;;1.55;;
32250;SDS011;41295;48.518;9.206;2022-10-16T12:28:42;3.38;;;1.35;;
32250;SDS011;41295;48.518;9.206;2022-10-16T12:30:52;3.05;;;1.50;;
32250;SDS011;41295;48.518;9.206;2022-10-16T12:32:56;6.10;;;1.35;;
32250;SDS011;41295;48.518;9.206;2022-10-16T12:35:04;2.67;;;1.58;;
32250;SDS011;41295;48.518;9.206;2022-10-16T12:37:19;3.03;;;1.90;;
32250;SDS011;41295;48.518;9.206;2022-10-16T12:39:27;5.05;;;1.55;;
32250;SDS011;41295;48.518;9.206;2022-10-16T12:41:31;2.90;;;1.60;;
32250;SDS011;41295;48.518;9.206;2022-10-16T12:43:37;5.45;;;1.50;;
32250;SDS011;41295;48.518;9.206;2022-10-16T12:45:43;3.63;;;1.60;;
32250;SDS011;41295;48.518;9.206;2022-10-16T12:47:48;6.75;;;1.48;;
32250;SDS011;41295;48.518;9.206;2022-10-16T12:49:53;4.32;;;1.60;;
32250;SDS011;41295;48.518;9.206;2022-10-16T12:51:58;10.07;;;2.13;;
32250;SDS011;41295;48.518;9.206;2022-10-16T12:54:01;2.75;;;1.75;;
32250;SDS011;41295;48.518;9.206;2022-10-16T12:56:09;4.43;;;1.67;;